Airfield :
LOGIN :

Register | Disclaimer

   EN    FR    IT 

 










Legend :    VFR   Marginal VFR   IFR   Intensive IFR   Very Intensive IFR
Visi :
Ceiling :
>= 8 km
>= 3000ft
5 to 8 km
1000 to 3000 ft
1500m to 5 km
500 to 1000 ft
800 to 1500m
200 to 500 ft
< 800m
< 200 ft
Symbols :   Thunderstorms  Fog  Heavy snow  Heavy precipitations  Wind > 20 kt
SIGMETs :     Misc.  Thunderstorms  Icing  Turbulence  Mountain Waves  Volcanic Ashes







- Airport Elevation : 49 ft
- IATA code : GLZ


EHGR - Gilze-Rijen Airbase

CURRENT METAR :
  • 231355Z AUTO 08013KT 030V130 9999 OVC200 14/04 Q1016 BLU 08010G20KT CAVOK

EXPIRED METARs :
  • 231325Z AUTO 05014KT 010V120 9999 OVC210 15/04 Q1015 BLU 08010G20KT CAVOK
  • 231255Z AUTO 08014KT 040V130 9999 NCD 14/04 Q1015 BLU 08010G20KT CAVOK
  • 231225Z AUTO 09015KT 040V130 9999 SCT240 14/03 Q1016 BLU 08010G20KT CAVOK
  • 231155Z AUTO 08012KT 030V130 9999 NCD 14/04 Q1015 BLU 08010G20KT CAVOK
  • 231125Z AUTO 09015KT 060V130 9999 OVC240 13/04 Q1015 BLU 08010G20KT CAVOK

TAF TAF EHGR
Valid from the 23 at 10:00 until the 23 at 22:00 UTC


230946Z 2310/2322 09012KT 9999 FEW035
No reported NOTAMs for that airfield.



MET'MAP, your aeronautical weather chart ! - Copyright ORBIFLY December 2007 - Disclaimer

ORBIFLY MET'MAP TEAM :

Programming & Development : Alexandra Zaïnal
Concept & Development : Baudouin d'Aumeries
Co-Development & Prog : Marc-Olivier Méhu
Technical & hardware support : Manuel Goepfert

Contact : metmap@orbifly.com




SOURCES & CREDITS :

   NOAA